sensor_id;sensor_type;location;lat;lon;timestamp;temperature;humidity
1680;DHT22;838;51.794;12.258;2023-08-30T00:00:18;17.90;45.80
1680;DHT22;838;51.794;12.258;2023-08-30T00:02:44;17.90;46.40
1680;DHT22;838;51.794;12.258;2023-08-30T00:05:10;17.90;45.90
1680;DHT22;838;51.794;12.258;2023-08-30T00:07:36;18.10;44.70
1680;DHT22;838;51.794;12.258;2023-08-30T00:10:02;18.10;44.00
1680;DHT22;838;51.794;12.258;2023-08-30T00:12:29;18.00;43.60
1680;DHT22;838;51.794;12.258;2023-08-30T00:14:55;17.70;46.20
1680;DHT22;838;51.794;12.258;2023-08-30T00:17:21;17.90;45.00
1680;DHT22;838;51.794;12.258;2023-08-30T00:19:47;17.70;46.20
1680;DHT22;838;51.794;12.258;2023-08-30T00:22:14;17.60;46.90
1680;DHT22;838;51.794;12.258;2023-08-30T00:24:40;17.50;46.50
1680;DHT22;838;51.794;12.258;2023-08-30T00:27:06;17.50;47.90
1680;DHT22;838;51.794;12.258;2023-08-30T00:29:31;17.30;49.70
1680;DHT22;838;51.794;12.258;2023-08-30T00:31:57;17.20;51.40
1680;DHT22;838;51.794;12.258;2023-08-30T00:34:23;17.10;52.30
1680;DHT22;838;51.794;12.258;2023-08-30T00:36:49;17.10;52.20
1680;DHT22;838;51.794;12.258;2023-08-30T00:39:15;16.90;53.20
1680;DHT22;838;51.794;12.258;2023-08-30T00:41:40;16.90;54.80
1680;DHT22;838;51.794;12.258;2023-08-30T00:44:06;16.90;54.80
1680;DHT22;838;51.794;12.258;2023-08-30T00:46:33;16.90;54.80
1680;DHT22;838;51.794;12.258;2023-08-30T00:49:00;16.90;56.80
1680;DHT22;838;51.794;12.258;2023-08-30T00:51:26;16.90;54.20
1680;DHT22;838;51.794;12.258;2023-08-30T00:53:59;16.80;56.40
1680;DHT22;838;51.794;12.258;2023-08-30T00:56:27;16.80;56.00
1680;DHT22;838;51.794;12.258;2023-08-30T00:58:53;16.80;55.80
1680;DHT22;838;51.794;12.258;2023-08-30T01:01:20;16.90;55.40
1680;DHT22;838;51.794;12.258;2023-08-30T01:03:46;17.10;51.70
1680;DHT22;838;51.794;12.258;2023-08-30T01:06:11;17.20;50.20
1680;DHT22;838;51.794;12.258;2023-08-30T01:08:40;17.30;48.50
1680;DHT22;838;51.794;12.258;2023-08-30T01:13:40;17.40;46.40
1680;DHT22;838;51.794;12.258;2023-08-30T01:16:07;17.40;46.30
1680;DHT22;838;51.794;12.258;2023-08-30T01:18:35;17.40;46.00
1680;DHT22;838;51.794;12.258;2023-08-30T01:21:04;17.40;46.20
1680;DHT22;838;51.794;12.258;2023-08-30T01:23:40;17.40;46.20
1680;DHT22;838;51.794;12.258;2023-08-30T01:26:23;17.40;45.90
1680;DHT22;838;51.794;12.258;2023-08-30T01:28:51;17.50;45.40
1680;DHT22;838;51.794;12.258;2023-08-30T01:31:19;17.50;45.60
1680;DHT22;838;51.794;12.258;2023-08-30T01:33:46;17.60;45.00
1680;DHT22;838;51.794;12.258;2023-08-30T01:36:12;17.50;44.90
1680;DHT22;838;51.794;12.258;2023-08-30T01:38:39;17.60;43.40
1680;DHT22;838;51.794;12.258;2023-08-30T01:41:05;17.60;44.00
1680;DHT22;838;51.794;12.258;2023-08-30T01:43:31;17.70;42.70
1680;DHT22;838;51.794;12.258;2023-08-30T01:45:59;17.80;40.50
1680;DHT22;838;51.794;12.258;2023-08-30T01:48:27;17.80;40.80
1680;DHT22;838;51.794;12.258;2023-08-30T01:50:56;17.70;40.70
1680;DHT22;838;51.794;12.258;2023-08-30T01:53:25;17.60;40.50
1680;DHT22;838;51.794;12.258;2023-08-30T01:55:52;17.40;42.90
1680;DHT22;838;51.794;12.258;2023-08-30T01:58:18;17.20;45.40
1680;DHT22;838;51.794;12.258;2023-08-30T02:00:44;17.20;47.30
1680;DHT22;838;51.794;12.258;2023-08-30T02:03:14;16.90;49.00
1680;DHT22;838;51.794;12.258;2023-08-30T02:05:52;17.20;49.40
1680;DHT22;838;51.794;12.258;2023-08-30T02:08:22;17.10;49.10
1680;DHT22;838;51.794;12.258;2023-08-30T02:10:56;17.30;46.90
1680;DHT22;838;51.794;12.258;2023-08-30T02:13:26;17.40;45.00
1680;DHT22;838;51.794;12.258;2023-08-30T02:16:00;17.40;45.90
1680;DHT22;838;51.794;12.258;2023-08-30T02:18:26;17.50;46.20
1680;DHT22;838;51.794;12.258;2023-08-30T02:20:53;17.70;43.60
1680;DHT22;838;51.794;12.258;2023-08-30T02:23:18;17.80;42.10
1680;DHT22;838;51.794;12.258;2023-08-30T02:25:44;17.80;42.90
1680;DHT22;838;51.794;12.258;2023-08-30T02:28:10;17.90;41.40
1680;DHT22;838;51.794;12.258;2023-08-30T02:30:36;17.90;41.00
1680;DHT22;838;51.794;12.258;2023-08-30T02:33:02;18.00;40.60
1680;DHT22;838;51.794;12.258;2023-08-30T02:35:28;18.00;39.70
1680;DHT22;838;51.794;12.258;2023-08-30T02:37:54;18.10;38.60
1680;DHT22;838;51.794;12.258;2023-08-30T02:40:20;18.10;38.20
1680;DHT22;838;51.794;12.258;2023-08-30T02:42:45;18.10;37.20
1680;DHT22;838;51.794;12.258;2023-08-30T02:45:11;18.00;37.40
1680;DHT22;838;51.794;12.258;2023-08-30T02:47:37;18.20;38.30
1680;DHT22;838;51.794;12.258;2023-08-30T02:50:03;18.20;38.40
1680;DHT22;838;51.794;12.258;2023-08-30T02:52:29;18.20;37.60
1680;DHT22;838;51.794;12.258;2023-08-30T02:54:54;18.20;37.30
1680;DHT22;838;51.794;12.258;2023-08-30T02:57:20;18.20;37.30
1680;DHT22;838;51.794;12.258;2023-08-30T02:59:46;18.20;37.20
1680;DHT22;838;51.794;12.258;2023-08-30T03:02:11;18.20;37.60
1680;DHT22;838;51.794;12.258;2023-08-30T03:04:37;18.20;36.70
1680;DHT22;838;51.794;12.258;2023-08-30T03:07:04;18.20;36.30
1680;DHT22;838;51.794;12.258;2023-08-30T03:09:30;18.20;36.40
1680;DHT22;838;51.794;12.258;2023-08-30T03:11:55;18.20;36.40
1680;DHT22;838;51.794;12.258;2023-08-30T03:14:21;18.10;37.10
1680;DHT22;838;51.794;12.258;2023-08-30T03:16:50;18.00;37.50
1680;DHT22;838;51.794;12.258;2023-08-30T03:19:16;18.00;38.50
1680;DHT22;838;51.794;12.258;2023-08-30T03:21:43;17.80;39.60
1680;DHT22;838;51.794;12.258;2023-08-30T03:24:09;17.70;40.80
1680;DHT22;838;51.794;12.258;2023-08-30T03:26:37;17.60;42.00
1680;DHT22;838;51.794;12.258;2023-08-30T03:29:03;17.70;40.70
1680;DHT22;838;51.794;12.258;2023-08-30T03:31:29;17.60;42.00
1680;DHT22;838;51.794;12.258;2023-08-30T03:34:01;17.30;46.50
1680;DHT22;838;51.794;12.258;2023-08-30T03:36:28;17.20;48.50
1680;DHT22;838;51.794;12.258;2023-08-30T03:38:54;17.30;47.00
1680;DHT22;838;51.794;12.258;2023-08-30T03:41:20;17.30;48.50
1680;DHT22;838;51.794;12.258;2023-08-30T03:43:45;17.40;47.20
1680;DHT22;838;51.794;12.258;2023-08-30T03:46:11;17.30;49.10
1680;DHT22;838;51.794;12.258;2023-08-30T03:48:37;17.40;47.50
1680;DHT22;838;51.794;12.258;2023-08-30T03:51:03;17.50;47.10
1680;DHT22;838;51.794;12.258;2023-08-30T03:53:29;17.60;46.20
1680;DHT22;838;51.794;12.258;2023-08-30T03:55:55;17.70;44.90
1680;DHT22;838;51.794;12.258;2023-08-30T03:58:21;17.80;43.20
1680;DHT22;838;51.794;12.258;2023-08-30T04:00:47;17.90;42.50
1680;DHT22;838;51.794;12.258;2023-08-30T04:03:14;18.00;42.00
1680;DHT22;838;51.794;12.258;2023-08-30T04:05:40;18.00;41.50
1680;DHT22;838;51.794;12.258;2023-08-30T04:08:07;18.10;40.50
1680;DHT22;838;51.794;12.258;2023-08-30T04:10:37;18.00;42.10
1680;DHT22;838;51.794;12.258;2023-08-30T04:13:04;17.90;41.90
1680;DHT22;838;51.794;12.258;2023-08-30T04:15:34;18.00;41.80
1680;DHT22;838;51.794;12.258;2023-08-30T04:18:01;18.00;40.60
1680;DHT22;838;51.794;12.258;2023-08-30T04:20:27;18.00;40.80
1680;DHT22;838;51.794;12.258;2023-08-30T04:22:52;18.00;41.40
1680;DHT22;838;51.794;12.258;2023-08-30T04:25:20;18.10;40.10
1680;DHT22;838;51.794;12.258;2023-08-30T04:27:46;18.10;39.70
1680;DHT22;838;51.794;12.258;2023-08-30T04:30:12;18.20;38.80
1680;DHT22;838;51.794;12.258;2023-08-30T04:32:38;18.10;39.10
1680;DHT22;838;51.794;12.258;2023-08-30T04:35:04;17.90;40.00
1680;DHT22;838;51.794;12.258;2023-08-30T04:37:30;17.90;40.40
1680;DHT22;838;51.794;12.258;2023-08-30T04:40:00;18.00;40.70
1680;DHT22;838;51.794;12.258;2023-08-30T04:42:26;18.00;39.50
1680;DHT22;838;51.794;12.258;2023-08-30T04:44:52;17.90;40.10
1680;DHT22;838;51.794;12.258;2023-08-30T04:47:20;17.80;40.20
1680;DHT22;838;51.794;12.258;2023-08-30T04:49:53;17.80;40.70
1680;DHT22;838;51.794;12.258;2023-08-30T04:52:19;18.00;39.10
1680;DHT22;838;51.794;12.258;2023-08-30T04:54:44;18.10;38.40
1680;DHT22;838;51.794;12.258;2023-08-30T04:57:11;18.20;37.80
1680;DHT22;838;51.794;12.258;2023-08-30T04:59:42;18.30;36.70
1680;DHT22;838;51.794;12.258;2023-08-30T05:02:08;18.20;37.80
1680;DHT22;838;51.794;12.258;2023-08-30T05:04:34;18.10;36.90
1680;DHT22;838;51.794;12.258;2023-08-30T05:07:00;17.90;38.80
1680;DHT22;838;51.794;12.258;2023-08-30T05:09:26;18.00;38.90
1680;DHT22;838;51.794;12.258;2023-08-30T05:11:52;18.00;37.90
1680;DHT22;838;51.794;12.258;2023-08-30T05:14:19;18.00;36.80
1680;DHT22;838;51.794;12.258;2023-08-30T05:16:45;17.90;37.50
1680;DHT22;838;51.794;12.258;2023-08-30T05:19:11;17.90;37.30
1680;DHT22;838;51.794;12.258;2023-08-30T05:21:37;17.90;37.40
1680;DHT22;838;51.794;12.258;2023-08-30T05:24:03;18.00;37.40
1680;DHT22;838;51.794;12.258;2023-08-30T05:26:28;18.00;37.70
1680;DHT22;838;51.794;12.258;2023-08-30T05:28:54;18.10;36.40
1680;DHT22;838;51.794;12.258;2023-08-30T05:31:20;18.10;36.50
1680;DHT22;838;51.794;12.258;2023-08-30T05:33:47;18.10;36.70
1680;DHT22;838;51.794;12.258;2023-08-30T05:36:13;18.00;37.10
1680;DHT22;838;51.794;12.258;2023-08-30T05:38:39;18.00;37.10
1680;DHT22;838;51.794;12.258;2023-08-30T05:41:05;17.90;37.30
1680;DHT22;838;51.794;12.258;2023-08-30T05:43:31;18.00;36.00
1680;DHT22;838;51.794;12.258;2023-08-30T05:45:56;18.00;36.10
1680;DHT22;838;51.794;12.258;2023-08-30T05:48:30;18.00;36.20
1680;DHT22;838;51.794;12.258;2023-08-30T05:50:57;17.90;34.40
1680;DHT22;838;51.794;12.258;2023-08-30T05:53:23;17.80;35.10
1680;DHT22;838;51.794;12.258;2023-08-30T05:55:49;17.80;35.60
1680;DHT22;838;51.794;12.258;2023-08-30T05:58:14;17.50;37.70
1680;DHT22;838;51.794;12.258;2023-08-30T06:00:41;17.30;40.40
1680;DHT22;838;51.794;12.258;2023-08-30T06:03:07;17.30;41.00
1680;DHT22;838;51.794;12.258;2023-08-30T06:05:33;17.30;40.10
1680;DHT22;838;51.794;12.258;2023-08-30T06:07:59;17.50;40.50
1680;DHT22;838;51.794;12.258;2023-08-30T06:10:26;17.60;37.80
1680;DHT22;838;51.794;12.258;2023-08-30T06:12:52;17.50;40.00
1680;DHT22;838;51.794;12.258;2023-08-30T06:15:18;17.60;39.30
1680;DHT22;838;51.794;12.258;2023-08-30T06:17:44;17.60;40.40
1680;DHT22;838;51.794;12.258;2023-08-30T06:20:12;17.60;42.60
1680;DHT22;838;51.794;12.258;2023-08-30T06:22:37;17.90;44.80
1680;DHT22;838;51.794;12.258;2023-08-30T06:25:04;18.20;46.60
1680;DHT22;838;51.794;12.258;2023-08-30T06:27:32;18.70;40.90
1680;DHT22;838;51.794;12.258;2023-08-30T06:29:58;19.10;36.80
1680;DHT22;838;51.794;12.258;2023-08-30T06:32:23;19.40;27.50
1680;DHT22;838;51.794;12.258;2023-08-30T06:34:49;19.50;23.60
1680;DHT22;838;51.794;12.258;2023-08-30T06:37:15;19.70;22.40
1680;DHT22;838;51.794;12.258;2023-08-30T06:39:41;19.50;22.20
1680;DHT22;838;51.794;12.258;2023-08-30T06:42:07;19.30;21.20
1680;DHT22;838;51.794;12.258;2023-08-30T06:44:33;19.30;19.00
1680;DHT22;838;51.794;12.258;2023-08-30T06:46:59;19.10;20.50
1680;DHT22;838;51.794;12.258;2023-08-30T06:49:24;19.20;20.80
1680;DHT22;838;51.794;12.258;2023-08-30T06:51:50;19.20;18.50
1680;DHT22;838;51.794;12.258;2023-08-30T06:54:16;19.20;17.60
1680;DHT22;838;51.794;12.258;2023-08-30T06:56:56;19.20;18.60
1680;DHT22;838;51.794;12.258;2023-08-30T06:59:22;19.30;18.30
1680;DHT22;838;51.794;12.258;2023-08-30T07:01:51;19.30;18.00
1680;DHT22;838;51.794;12.258;2023-08-30T07:04:16;19.40;17.80
1680;DHT22;838;51.794;12.258;2023-08-30T07:06:50;19.40;17.40
1680;DHT22;838;51.794;12.258;2023-08-30T07:09:15;19.50;16.50
1680;DHT22;838;51.794;12.258;2023-08-30T07:11:56;19.60;16.00
1680;DHT22;838;51.794;12.258;2023-08-30T07:14:51;19.80;15.20
1680;DHT22;838;51.794;12.258;2023-08-30T07:17:43;20.10;13.30
1680;DHT22;838;51.794;12.258;2023-08-30T07:20:12;20.10;12.90
1680;DHT22;838;51.794;12.258;2023-08-30T07:22:51;20.30;11.20
1680;DHT22;838;51.794;12.258;2023-08-30T07:25:16;20.20;10.60
1680;DHT22;838;51.794;12.258;2023-08-30T07:27:42;20.20;7.80
1680;DHT22;838;51.794;12.258;2023-08-30T07:30:09;20.20;8.10
1680;DHT22;838;51.794;12.258;2023-08-30T07:32:35;20.30;9.80
1680;DHT22;838;51.794;12.258;2023-08-30T07:35:01;20.50;9.50
1680;DHT22;838;51.794;12.258;2023-08-30T07:37:27;20.70;7.00
1680;DHT22;838;51.794;12.258;2023-08-30T07:39:53;20.70;7.50
1680;DHT22;838;51.794;12.258;2023-08-30T07:42:19;20.90;7.00
1680;DHT22;838;51.794;12.258;2023-08-30T07:44:45;21.10;6.00
1680;DHT22;838;51.794;12.258;2023-08-30T07:47:11;21.10;9.20
1680;DHT22;838;51.794;12.258;2023-08-30T07:49:37;21.20;10.80
1680;DHT22;838;51.794;12.258;2023-08-30T07:52:10;21.20;6.20
1680;DHT22;838;51.794;12.258;2023-08-30T07:54:37;21.10;5.90
1680;DHT22;838;51.794;12.258;2023-08-30T07:57:04;21.10;5.50
1680;DHT22;838;51.794;12.258;2023-08-30T07:59:32;20.80;9.20
1680;DHT22;838;51.794;12.258;2023-08-30T08:01:58;20.90;8.90
1680;DHT22;838;51.794;12.258;2023-08-30T08:04:24;21.30;7.90
1680;DHT22;838;51.794;12.258;2023-08-30T08:06:49;21.50;4.80
1680;DHT22;838;51.794;12.258;2023-08-30T08:09:15;22.00;4.10
1680;DHT22;838;51.794;12.258;2023-08-30T08:11:41;22.00;3.30
1680;DHT22;838;51.794;12.258;2023-08-30T08:14:10;22.20;1.30
1680;DHT22;838;51.794;12.258;2023-08-30T08:16:36;22.40;1.00
1680;DHT22;838;51.794;12.258;2023-08-30T08:19:03;22.50;1.00
1680;DHT22;838;51.794;12.258;2023-08-30T08:21:29;22.50;1.00
1680;DHT22;838;51.794;12.258;2023-08-30T08:23:55;22.30;1.00
1680;DHT22;838;51.794;12.258;2023-08-30T08:26:21;22.30;1.00
1680;DHT22;838;51.794;12.258;2023-08-30T08:28:46;21.80;3.00
1680;DHT22;838;51.794;12.258;2023-08-30T08:31:15;21.70;2.90
1680;DHT22;838;51.794;12.258;2023-08-30T08:33:44;21.70;1.00
1680;DHT22;838;51.794;12.258;2023-08-30T08:36:10;22.00;1.00
1680;DHT22;838;51.794;12.258;2023-08-30T08:38:36;22.20;1.00
1680;DHT22;838;51.794;12.258;2023-08-30T08:41:12;22.60;1.10
1680;DHT22;838;51.794;12.258;2023-08-30T08:43:49;22.80;1.00
1680;DHT22;838;51.794;12.258;2023-08-30T08:46:16;22.80;1.00
1680;DHT22;838;51.794;12.258;2023-08-30T08:48:43;22.70;1.00
1680;DHT22;838;51.794;12.258;2023-08-30T08:51:10;22.50;1.00
1680;DHT22;838;51.794;12.258;2023-08-30T08:53:37;22.50;1.00
1680;DHT22;838;51.794;12.258;2023-08-30T08:56:04;22.20;1.00
1680;DHT22;838;51.794;12.258;2023-08-30T08:58:35;22.30;1.00
1680;DHT22;838;51.794;12.258;2023-08-30T09:01:03;22.30;1.00
1680;DHT22;838;51.794;12.258;2023-08-30T09:03:29;22.30;1.00
1680;DHT22;838;51.794;12.258;2023-08-30T09:05:55;22.60;1.00
1680;DHT22;838;51.794;12.258;2023-08-30T09:08:21;22.80;1.00
1680;DHT22;838;51.794;12.258;2023-08-30T09:10:55;22.50;1.00
1680;DHT22;838;51.794;12.258;2023-08-30T09:13:20;22.40;1.00
1680;DHT22;838;51.794;12.258;2023-08-30T09:15:48;22.60;1.00
1680;DHT22;838;51.794;12.258;2023-08-30T09:18:18;23.30;1.00
1680;DHT22;838;51.794;12.258;2023-08-30T09:21:07;24.20;1.00
1680;DHT22;838;51.794;12.258;2023-08-30T09:23:41;24.80;1.00
1680;DHT22;838;51.794;12.258;2023-08-30T09:26:07;24.90;1.00
1680;DHT22;838;51.794;12.258;2023-08-30T09:28:42;24.80;1.00
1680;DHT22;838;51.794;12.258;2023-08-30T09:31:17;24.50;1.00
1680;DHT22;838;51.794;12.258;2023-08-30T09:33:45;24.20;1.00
1680;DHT22;838;51.794;12.258;2023-08-30T09:36:13;23.90;1.00
1680;DHT22;838;51.794;12.258;2023-08-30T09:38:39;23.60;1.00
1680;DHT22;838;51.794;12.258;2023-08-30T09:41:05;23.60;1.00
1680;DHT22;838;51.794;12.258;2023-08-30T09:43:32;23.80;1.00
1680;DHT22;838;51.794;12.258;2023-08-30T09:46:05;23.80;1.00
1680;DHT22;838;51.794;12.258;2023-08-30T09:48:31;23.90;1.00
1680;DHT22;838;51.794;12.258;2023-08-30T09:51:23;24.10;1.00
1680;DHT22;838;51.794;12.258;2023-08-30T09:53:54;24.00;1.00
1680;DHT22;838;51.794;12.258;2023-08-30T09:56:31;24.10;1.00
1680;DHT22;838;51.794;12.258;2023-08-30T09:58:58;24.00;1.00
1680;DHT22;838;51.794;12.258;2023-08-30T10:01:28;24.00;1.00
1680;DHT22;838;51.794;12.258;2023-08-30T10:03:55;23.90;1.00
1680;DHT22;838;51.794;12.258;2023-08-30T10:06:25;23.30;1.00
1680;DHT22;838;51.794;12.258;2023-08-30T10:08:59;23.00;1.00
1680;DHT22;838;51.794;12.258;2023-08-30T10:11:27;22.50;1.00
1680;DHT22;838;51.794;12.258;2023-08-30T10:13:55;22.60;1.00
1680;DHT22;838;51.794;12.258;2023-08-30T10:16:26;22.60;1.00
1680;DHT22;838;51.794;12.258;2023-08-30T10:19:03;22.50;1.00
1680;DHT22;838;51.794;12.258;2023-08-30T10:21:35;22.10;1.00
1680;DHT22;838;51.794;12.258;2023-08-30T10:24:02;21.80;1.00
1680;DHT22;838;51.794;12.258;2023-08-30T10:26:29;21.90;1.00
1680;DHT22;838;51.794;12.258;2023-08-30T10:28:57;22.00;1.00
1680;DHT22;838;51.794;12.258;2023-08-30T10:31:24;22.10;1.00
1680;DHT22;838;51.794;12.258;2023-08-30T10:33:52;22.50;1.00
1680;DHT22;838;51.794;12.258;2023-08-30T10:36:34;23.00;1.00
1680;DHT22;838;51.794;12.258;2023-08-30T10:39:00;23.40;1.00
1680;DHT22;838;51.794;12.258;2023-08-30T10:41:36;23.60;1.00
1680;DHT22;838;51.794;12.258;2023-08-30T10:44:02;23.80;1.00
1680;DHT22;838;51.794;12.258;2023-08-30T10:46:37;23.50;1.00
1680;DHT22;838;51.794;12.258;2023-08-30T10:49:12;23.40;1.00
1680;DHT22;838;51.794;12.258;2023-08-30T10:51:44;23.30;1.00
1680;DHT22;838;51.794;12.258;2023-08-30T10:54:14;23.40;1.00
1680;DHT22;838;51.794;12.258;2023-08-30T10:56:58;23.60;1.00
1680;DHT22;838;51.794;12.258;2023-08-30T10:59:35;23.80;1.00
1680;DHT22;838;51.794;12.258;2023-08-30T11:02:20;23.90;1.00
1680;DHT22;838;51.794;12.258;2023-08-30T11:04:58;24.20;1.00
1680;DHT22;838;51.794;12.258;2023-08-30T11:07:27;24.30;1.00
1680;DHT22;838;51.794;12.258;2023-08-30T11:10:03;24.50;1.00
1680;DHT22;838;51.794;12.258;2023-08-30T11:12:35;24.80;1.00
1680;DHT22;838;51.794;12.258;2023-08-30T11:15:06;24.90;1.00
1680;DHT22;838;51.794;12.258;2023-08-30T11:17:32;25.10;1.00
1680;DHT22;838;51.794;12.258;2023-08-30T11:20:06;25.20;1.00
1680;DHT22;838;51.794;12.258;2023-08-30T11:22:36;25.30;1.00
1680;DHT22;838;51.794;12.258;2023-08-30T11:25:03;25.40;1.00
1680;DHT22;838;51.794;12.258;2023-08-30T11:27:29;25.70;1.00
1680;DHT22;838;51.794;12.258;2023-08-30T11:30:01;25.80;1.00
1680;DHT22;838;51.794;12.258;2023-08-30T11:32:35;26.10;1.00
1680;DHT22;838;51.794;12.258;2023-08-30T11:35:02;26.20;1.00
1680;DHT22;838;51.794;12.258;2023-08-30T11:37:28;26.10;1.00
1680;DHT22;838;51.794;12.258;2023-08-30T11:39:58;26.30;1.00
1680;DHT22;838;51.794;12.258;2023-08-30T11:42:25;26.50;1.00
1680;DHT22;838;51.794;12.258;2023-08-30T11:44:52;26.50;1.00
1680;DHT22;838;51.794;12.258;2023-08-30T11:47:25;26.50;1.00
1680;DHT22;838;51.794;12.258;2023-08-30T11:49:57;26.70;1.00
1680;DHT22;838;51.794;12.258;2023-08-30T11:52:51;26.80;1.00
1680;DHT22;838;51.794;12.258;2023-08-30T11:55:18;26.70;1.00
1680;DHT22;838;51.794;12.258;2023-08-30T11:57:45;26.80;1.00
1680;DHT22;838;51.794;12.258;2023-08-30T12:00:14;26.40;1.00
1680;DHT22;838;51.794;12.258;2023-08-30T12:02:40;26.40;1.00
1680;DHT22;838;51.794;12.258;2023-08-30T12:05:10;25.90;1.00
1680;DHT22;838;51.794;12.258;2023-08-30T12:07:37;25.80;1.00
1680;DHT22;838;51.794;12.258;2023-08-30T12:10:12;25.90;1.00
1680;DHT22;838;51.794;12.258;2023-08-30T12:12:38;26.10;1.00
1680;DHT22;838;51.794;12.258;2023-08-30T12:15:10;26.00;1.00
1680;DHT22;838;51.794;12.258;2023-08-30T12:17:37;25.40;1.00
1680;DHT22;838;51.794;12.258;2023-08-30T12:20:25;24.70;1.00
1680;DHT22;838;51.794;12.258;2023-08-30T12:22:51;24.60;1.00
1680;DHT22;838;51.794;12.258;2023-08-30T12:25:22;24.60;1.00
1680;DHT22;838;51.794;12.258;2023-08-30T12:28:09;24.40;1.00
1680;DHT22;838;51.794;12.258;2023-08-30T12:30:38;24.50;1.00
1680;DHT22;838;51.794;12.258;2023-08-30T12:33:07;24.80;1.00
1680;DHT22;838;51.794;12.258;2023-08-30T12:35:33;25.00;1.00
1680;DHT22;838;51.794;12.258;2023-08-30T12:38:19;25.10;1.00
1680;DHT22;838;51.794;12.258;2023-08-30T12:40:46;24.90;1.00
1680;DHT22;838;51.794;12.258;2023-08-30T12:43:16;25.10;1.00
1680;DHT22;838;51.794;12.258;2023-08-30T12:45:43;25.30;1.00
1680;DHT22;838;51.794;12.258;2023-08-30T12:48:10;25.30;1.00
1680;DHT22;838;51.794;12.258;2023-08-30T12:50:58;25.30;1.00
1680;DHT22;838;51.794;12.258;2023-08-30T12:53:24;25.00;1.00
1680;DHT22;838;51.794;12.258;2023-08-30T12:55:50;25.00;1.00
1680;DHT22;838;51.794;12.258;2023-08-30T12:58:16;25.10;1.00
1680;DHT22;838;51.794;12.258;2023-08-30T13:00:41;25.30;1.00
1680;DHT22;838;51.794;12.258;2023-08-30T13:03:07;25.20;1.00
1680;DHT22;838;51.794;12.258;2023-08-30T13:05:33;25.10;1.00
1680;DHT22;838;51.794;12.258;2023-08-30T13:08:00;25.10;1.00
1680;DHT22;838;51.794;12.258;2023-08-30T13:10:26;25.10;1.00
1680;DHT22;838;51.794;12.258;2023-08-30T13:12:55;25.10;1.00
1680;DHT22;838;51.794;12.258;2023-08-30T13:15:22;25.30;1.00
1680;DHT22;838;51.794;12.258;2023-08-30T13:17:48;25.60;1.00
1680;DHT22;838;51.794;12.258;2023-08-30T13:20:14;25.70;1.00
1680;DHT22;838;51.794;12.258;2023-08-30T13:22:40;25.70;1.00
1680;DHT22;838;51.794;12.258;2023-08-30T13:25:06;25.60;1.00
1680;DHT22;838;51.794;12.258;2023-08-30T13:27:33;25.50;1.00
1680;DHT22;838;51.794;12.258;2023-08-30T13:29:59;25.50;1.00
1680;DHT22;838;51.794;12.258;2023-08-30T13:32:25;25.60;1.00
1680;DHT22;838;51.794;12.258;2023-08-30T13:34:51;25.50;1.00
1680;DHT22;838;51.794;12.258;2023-08-30T13:37:17;25.30;1.00
1680;DHT22;838;51.794;12.258;2023-08-30T13:39:43;25.10;1.00
1680;DHT22;838;51.794;12.258;2023-08-30T13:42:09;25.20;1.00
1680;DHT22;838;51.794;12.258;2023-08-30T13:44:35;25.30;1.00
1680;DHT22;838;51.794;12.258;2023-08-30T13:47:04;25.30;1.00
1680;DHT22;838;51.794;12.258;2023-08-30T13:49:30;25.30;1.00
1680;DHT22;838;51.794;12.258;2023-08-30T13:51:57;25.20;1.00
1680;DHT22;838;51.794;12.258;2023-08-30T13:54:23;25.20;1.00
1680;DHT22;838;51.794;12.258;2023-08-30T13:56:48;25.10;1.00
1680;DHT22;838;51.794;12.258;2023-08-30T13:59:18;25.10;1.00
1680;DHT22;838;51.794;12.258;2023-08-30T14:01:44;25.10;1.00
1680;DHT22;838;51.794;12.258;2023-08-30T14:04:09;25.00;1.00
1680;DHT22;838;51.794;12.258;2023-08-30T14:06:35;25.00;1.00
1680;DHT22;838;51.794;12.258;2023-08-30T14:09:01;25.00;1.00
1680;DHT22;838;51.794;12.258;2023-08-30T14:11:29;25.10;1.00
1680;DHT22;838;51.794;12.258;2023-08-30T14:13:55;25.40;1.00
1680;DHT22;838;51.794;12.258;2023-08-30T14:16:21;25.40;1.00
1680;DHT22;838;51.794;12.258;2023-08-30T14:18:50;25.20;1.00
1680;DHT22;838;51.794;12.258;2023-08-30T14:21:16;25.20;1.00
1680;DHT22;838;51.794;12.258;2023-08-30T14:23:42;25.20;1.00
1680;DHT22;838;51.794;12.258;2023-08-30T14:26:08;25.10;1.00
1680;DHT22;838;51.794;12.258;2023-08-30T14:28:38;24.80;1.00
1680;DHT22;838;51.794;12.258;2023-08-30T14:31:09;24.70;1.00
1680;DHT22;838;51.794;12.258;2023-08-30T14:33:35;24.90;1.00
1680;DHT22;838;51.794;12.258;2023-08-30T14:36:01;25.10;1.00
1680;DHT22;838;51.794;12.258;2023-08-30T14:38:30;25.30;1.00
1680;DHT22;838;51.794;12.258;2023-08-30T14:41:00;25.50;1.00
1680;DHT22;838;51.794;12.258;2023-08-30T14:43:29;25.50;1.00
1680;DHT22;838;51.794;12.258;2023-08-30T14:46:07;25.30;1.00
1680;DHT22;838;51.794;12.258;2023-08-30T14:48:33;25.10;1.00
1680;DHT22;838;51.794;12.258;2023-08-30T14:51:04;25.00;1.00
1680;DHT22;838;51.794;12.258;2023-08-30T14:53:30;25.10;1.00
1680;DHT22;838;51.794;12.258;2023-08-30T14:55:56;25.10;1.00
1680;DHT22;838;51.794;12.258;2023-08-30T14:58:22;24.90;1.00
1680;DHT22;838;51.794;12.258;2023-08-30T15:00:48;24.80;1.00
1680;DHT22;838;51.794;12.258;2023-08-30T15:03:14;24.60;1.00
1680;DHT22;838;51.794;12.258;2023-08-30T15:05:40;24.40;1.00
1680;DHT22;838;51.794;12.258;2023-08-30T15:08:09;24.50;1.00
1680;DHT22;838;51.794;12.258;2023-08-30T15:10:44;24.50;1.00
1680;DHT22;838;51.794;12.258;2023-08-30T15:13:10;24.50;1.00
1680;DHT22;838;51.794;12.258;2023-08-30T15:15:36;24.70;1.00
1680;DHT22;838;51.794;12.258;2023-08-30T15:18:01;24.70;1.00
1680;DHT22;838;51.794;12.258;2023-08-30T15:20:27;24.80;1.00
1680;DHT22;838;51.794;12.258;2023-08-30T15:22:53;24.80;1.00
1680;DHT22;838;51.794;12.258;2023-08-30T15:25:19;24.80;1.00
1680;DHT22;838;51.794;12.258;2023-08-30T15:27:47;24.80;1.00
1680;DHT22;838;51.794;12.258;2023-08-30T15:30:16;24.80;1.00
1680;DHT22;838;51.794;12.258;2023-08-30T15:32:44;24.70;1.00
1680;DHT22;838;51.794;12.258;2023-08-30T15:35:10;24.40;1.00
1680;DHT22;838;51.794;12.258;2023-08-30T15:37:36;24.40;1.00
1680;DHT22;838;51.794;12.258;2023-08-30T15:40:04;24.40;1.00
1680;DHT22;838;51.794;12.258;2023-08-30T15:42:33;24.40;1.00
1680;DHT22;838;51.794;12.258;2023-08-30T15:45:03;24.50;1.00
1680;DHT22;838;51.794;12.258;2023-08-30T15:47:31;24.40;1.00
1680;DHT22;838;51.794;12.258;2023-08-30T15:50:00;24.40;1.00
1680;DHT22;838;51.794;12.258;2023-08-30T15:52:26;24.20;1.00
1680;DHT22;838;51.794;12.258;2023-08-30T15:55:00;24.10;1.00
1680;DHT22;838;51.794;12.258;2023-08-30T15:57:26;24.00;1.00
1680;DHT22;838;51.794;12.258;2023-08-30T15:59:54;24.00;1.00
1680;DHT22;838;51.794;12.258;2023-08-30T16:02:20;24.20;1.00
1680;DHT22;838;51.794;12.258;2023-08-30T16:04:46;24.50;1.00
1680;DHT22;838;51.794;12.258;2023-08-30T16:07:12;24.70;1.00
1680;DHT22;838;51.794;12.258;2023-08-30T16:09:38;24.90;1.00
1680;DHT22;838;51.794;12.258;2023-08-30T16:12:03;24.80;1.00
1680;DHT22;838;51.794;12.258;2023-08-30T16:14:29;24.80;1.00
1680;DHT22;838;51.794;12.258;2023-08-30T16:16:55;24.80;1.00